sensor_id;sensor_type;location;lat;lon;timestamp;pressure;altitude;pressure_sealevel;temperature;humidity
44079;BME280;29744;49.078;12.878;2023-07-29T00:04:57;96047.91;;;19.13;42.76
44079;BME280;29744;49.078;12.878;2023-07-29T00:09:57;96049.84;;;19.13;42.54
44079;BME280;29744;49.078;12.878;2023-07-29T00:14:58;96057.22;;;19.12;42.88
44079;BME280;29744;49.078;12.878;2023-07-29T00:19:59;96047.13;;;19.13;42.76
44079;BME280;29744;49.078;12.878;2023-07-29T00:24:59;96047.13;;;19.13;42.76
44079;BME280;29744;49.078;12.878;2023-07-29T00:29:59;96049.84;;;19.13;42.85
44079;BME280;29744;49.078;12.878;2023-07-29T00:35:00;96032.75;;;19.12;42.79
44079;BME280;29744;49.078;12.878;2023-07-29T00:40:01;96040.13;;;19.12;42.72
44079;BME280;29744;49.078;12.878;2023-07-29T00:45:01;96033.91;;;19.11;42.55
44079;BME280;29744;49.078;12.878;2023-07-29T00:50:02;96043.63;;;19.12;42.51
44079;BME280;29744;49.078;12.878;2023-07-29T00:55:04;96046.34;;;19.12;42.55
44079;BME280;29744;49.078;12.878;2023-07-29T01:00:05;96042.84;;;19.12;42.17
44079;BME280;29744;49.078;12.878;2023-07-29T01:05:06;96040.91;;;19.12;42.61
44079;BME280;29744;49.078;12.878;2023-07-29T01:15:33;96051.34;;;19.10;42.51
44079;BME280;29744;49.078;12.878;2023-07-29T01:20:37;96055.63;;;19.11;42.31
44079;BME280;29744;49.078;12.878;2023-07-29T01:25:37;96061.06;;;19.11;42.70
44079;BME280;29744;49.078;12.878;2023-07-29T01:30:40;96053.72;;;19.12;42.34
44079;BME280;29744;49.078;12.878;2023-07-29T01:36:04;96045.91;;;19.10;42.60
44079;BME280;29744;49.078;12.878;2023-07-29T01:41:08;96048.63;;;19.10;42.56
44079;BME280;29744;49.078;12.878;2023-07-29T01:46:13;96035.03;;;19.10;42.82
44079;BME280;29744;49.078;12.878;2023-07-29T01:51:14;96038.56;;;19.11;42.73
44079;BME280;29744;49.078;12.878;2023-07-29T01:56:14;96027.69;;;19.11;42.80
44079;BME280;29744;49.078;12.878;2023-07-29T02:01:14;96021.47;;;19.10;42.82
44079;BME280;29744;49.078;12.878;2023-07-29T02:06:15;96029.59;;;19.10;42.58
44079;BME280;29744;49.078;12.878;2023-07-29T02:11:15;96026.91;;;19.10;42.61
44079;BME280;29744;49.078;12.878;2023-07-29T02:16:16;96027.69;;;19.11;42.30
44079;BME280;29744;49.078;12.878;2023-07-29T02:21:16;96028.03;;;19.09;42.59
44079;BME280;29744;49.078;12.878;2023-07-29T02:26:17;96026.91;;;19.10;42.68
44079;BME280;29744;49.078;12.878;2023-07-29T02:31:22;96025.75;;;19.11;42.62
44079;BME280;29744;49.078;12.878;2023-07-29T02:36:23;96026.09;;;19.10;42.51
44079;BME280;29744;49.078;12.878;2023-07-29T02:41:23;96035.03;;;19.10;42.68
44079;BME280;29744;49.078;12.878;2023-07-29T02:46:23;96037.75;;;19.10;42.86
44079;BME280;29744;49.078;12.878;2023-07-29T02:51:23;96036.97;;;19.10;42.50
44079;BME280;29744;49.078;12.878;2023-07-29T02:56:24;96031.53;;;19.10;42.69
44079;BME280;29744;49.078;12.878;2023-07-29T03:01:24;96032.31;;;19.10;42.69
44079;BME280;29744;49.078;12.878;2023-07-29T03:06:27;96039.69;;;19.10;42.64
44079;BME280;29744;49.078;12.878;2023-07-29T03:11:27;96036.97;;;19.10;43.00
44079;BME280;29744;49.078;12.878;2023-07-29T03:16:27;96043.19;;;19.10;42.31
44079;BME280;29744;49.078;12.878;2023-07-29T03:21:28;96047.84;;;19.10;42.55
44079;BME280;29744;49.078;12.878;2023-07-29T03:26:28;96047.06;;;19.09;42.81
44079;BME280;29744;49.078;12.878;2023-07-29T03:31:28;96044.34;;;19.09;42.75
44079;BME280;29744;49.078;12.878;2023-07-29T03:36:29;96049.41;;;19.11;42.54
44079;BME280;29744;49.078;12.878;2023-07-29T03:41:29;96056.00;;;19.10;42.57
44079;BME280;29744;49.078;12.878;2023-07-29T03:46:31;96056.00;;;19.10;42.77
44079;BME280;29744;49.078;12.878;2023-07-29T03:51:31;96058.72;;;19.10;42.37
44079;BME280;29744;49.078;12.878;2023-07-29T03:56:31;96055.22;;;19.09;42.71
44079;BME280;29744;49.078;12.878;2023-07-29T04:01:32;96049.78;;;19.09;42.38
44079;BME280;29744;49.078;12.878;2023-07-29T04:06:32;96050.16;;;19.08;42.68
44079;BME280;29744;49.078;12.878;2023-07-29T04:11:32;96057.94;;;19.09;42.51
44079;BME280;29744;49.078;12.878;2023-07-29T04:16:33;96053.66;;;19.08;42.26
44079;BME280;29744;49.078;12.878;2023-07-29T04:21:33;96049.78;;;19.09;42.76
44079;BME280;29744;49.078;12.878;2023-07-29T04:26:33;96042.78;;;19.08;42.39
44079;BME280;29744;49.078;12.878;2023-07-29T04:31:34;96049.00;;;19.09;42.67
44079;BME280;29744;49.078;12.878;2023-07-29T04:36:34;96047.06;;;19.09;42.64
44079;BME280;29744;49.078;12.878;2023-07-29T04:41:34;96038.91;;;19.09;42.29
44079;BME280;29744;49.078;12.878;2023-07-29T04:46:36;96037.75;;;19.10;42.49
44079;BME280;29744;49.078;12.878;2023-07-29T04:51:36;96036.97;;;19.10;42.58
44079;BME280;29744;49.078;12.878;2023-07-29T04:56:37;96047.84;;;19.10;42.83
44079;BME280;29744;49.078;12.878;2023-07-29T05:01:37;96047.84;;;19.10;42.54
44079;BME280;29744;49.078;12.878;2023-07-29T05:06:37;96045.91;;;19.10;42.73
44079;BME280;29744;49.078;12.878;2023-07-29T05:11:38;96035.84;;;19.11;42.66
44079;BME280;29744;49.078;12.878;2023-07-29T05:16:38;96039.34;;;19.11;42.62
44079;BME280;29744;49.078;12.878;2023-07-29T05:21:39;96039.34;;;19.11;42.79
44079;BME280;29744;49.078;12.878;2023-07-29T05:26:39;96036.63;;;19.11;42.64
44079;BME280;29744;49.078;12.878;2023-07-29T05:31:39;96040.91;;;19.12;42.17
44079;BME280;29744;49.078;12.878;2023-07-29T05:36:40;96029.25;;;19.12;42.51
44079;BME280;29744;49.078;12.878;2023-07-29T05:41:41;96029.25;;;19.12;42.24
44079;BME280;29744;49.078;12.878;2023-07-29T05:46:41;96031.59;;;19.13;42.88
44079;BME280;29744;49.078;12.878;2023-07-29T05:51:41;96037.81;;;19.14;42.86
44079;BME280;29744;49.078;12.878;2023-07-29T05:56:42;96037.81;;;19.14;42.75
44079;BME280;29744;49.078;12.878;2023-07-29T06:01:42;96028.53;;;19.15;42.26
44079;BME280;29744;49.078;12.878;2023-07-29T06:06:42;96023.88;;;19.15;42.28
44079;BME280;29744;49.078;12.878;2023-07-29T06:11:43;96033.16;;;19.14;42.67
44079;BME280;29744;49.078;12.878;2023-07-29T06:16:43;96043.69;;;19.16;42.53
44079;BME280;29744;49.078;12.878;2023-07-29T06:21:43;96057.28;;;19.16;42.32
44079;BME280;29744;49.078;12.878;2023-07-29T06:26:44;96051.84;;;19.16;42.74
44079;BME280;29744;49.078;12.878;2023-07-29T06:31:44;96041.75;;;19.16;42.58
44079;BME280;29744;49.078;12.878;2023-07-29T06:36:44;96027.00;;;19.17;42.79
44079;BME280;29744;49.078;12.878;2023-07-29T06:41:44;96029.72;;;19.17;42.58
44079;BME280;29744;49.078;12.878;2023-07-29T06:46:45;96030.16;;;19.19;42.52
44079;BME280;29744;49.078;12.878;2023-07-29T06:51:45;96028.56;;;19.18;42.40
44079;BME280;29744;49.078;12.878;2023-07-29T06:56:45;96025.50;;;19.20;42.76
44079;BME280;29744;49.078;12.878;2023-07-29T07:01:46;96030.94;;;19.20;42.34
44079;BME280;29744;49.078;12.878;2023-07-29T07:06:46;96028.22;;;19.20;42.79
44079;BME280;29744;49.078;12.878;2023-07-29T07:11:46;96025.13;;;19.21;42.70
44079;BME280;29744;49.078;12.878;2023-07-29T07:16:47;96012.31;;;19.22;42.86
44079;BME280;29744;49.078;12.878;2023-07-29T07:21:47;96019.69;;;19.21;42.48
44079;BME280;29744;49.078;12.878;2023-07-29T07:26:47;96016.63;;;19.23;42.28
44079;BME280;29744;49.078;12.878;2023-07-29T07:31:52;96009.25;;;19.23;42.53
44079;BME280;29744;49.078;12.878;2023-07-29T07:36:53;96009.25;;;19.23;42.28
44079;BME280;29744;49.078;12.878;2023-07-29T07:41:53;96004.59;;;19.24;42.67
44079;BME280;29744;49.078;12.878;2023-07-29T07:46:54;96005.38;;;19.24;42.79
44079;BME280;29744;49.078;12.878;2023-07-29T07:51:54;96005.38;;;19.24;42.50
44079;BME280;29744;49.078;12.878;2023-07-29T07:56:54;96001.50;;;19.25;42.40
44079;BME280;29744;49.078;12.878;2023-07-29T08:01:54;96011.22;;;19.26;42.47
44079;BME280;29744;49.078;12.878;2023-07-29T08:06:55;96020.16;;;19.27;42.63
44079;BME280;29744;49.078;12.878;2023-07-29T08:11:55;96026.41;;;19.27;42.88
44079;BME280;29744;49.078;12.878;2023-07-29T08:16:55;96013.22;;;19.30;42.57
44079;BME280;29744;49.078;12.878;2023-07-29T08:21:56;96005.16;;;19.33;43.23
44079;BME280;29744;49.078;12.878;2023-07-29T08:26:56;96007.94;;;19.37;43.20
44079;BME280;29744;49.078;12.878;2023-07-29T08:31:57;96006.81;;;19.41;43.04
44079;BME280;29744;49.078;12.878;2023-07-29T08:36:57;96012.31;;;19.45;43.04
44079;BME280;29744;49.078;12.878;2023-07-29T08:42:01;96018.97;;;19.47;42.97
44079;BME280;29744;49.078;12.878;2023-07-29T08:47:04;96019.75;;;19.48;42.99
44079;BME280;29744;49.078;12.878;2023-07-29T08:52:06;96011.22;;;19.49;42.66
44079;BME280;29744;49.078;12.878;2023-07-29T08:57:07;96019.38;;;19.49;42.93
44079;BME280;29744;49.078;12.878;2023-07-29T09:02:07;96027.91;;;19.48;42.71
44079;BME280;29744;49.078;12.878;2023-07-29T09:07:09;96025.59;;;19.50;43.12
44079;BME280;29744;49.078;12.878;2023-07-29T09:12:10;96060.53;;;19.48;42.92
44079;BME280;29744;49.078;12.878;2023-07-29T09:17:11;96096.69;;;19.48;42.56
44079;BME280;29744;49.078;12.878;2023-07-29T09:22:19;96116.09;;;19.47;42.68
44079;BME280;29744;49.078;12.878;2023-07-29T09:27:27;96103.63;;;19.46;42.67
44079;BME280;29744;49.078;12.878;2023-07-29T09:32:27;96078.38;;;19.45;42.75
44079;BME280;29744;49.078;12.878;2023-07-29T09:37:28;96062.41;;;19.44;42.88
44079;BME280;29744;49.078;12.878;2023-07-29T09:42:28;96058.50;;;19.41;42.73
44079;BME280;29744;49.078;12.878;2023-07-29T09:47:28;96048.41;;;19.42;42.78
44079;BME280;29744;49.078;12.878;2023-07-29T09:52:30;96055.78;;;19.41;42.67
44079;BME280;29744;49.078;12.878;2023-07-29T09:57:30;96057.72;;;19.41;42.94
44079;BME280;29744;49.078;12.878;2023-07-29T10:02:31;96052.28;;;19.41;42.72
44079;BME280;29744;49.078;12.878;2023-07-29T10:07:33;96037.88;;;19.40;42.70
44079;BME280;29744;49.078;12.878;2023-07-29T10:12:35;96035.16;;;19.40;42.45
44079;BME280;29744;49.078;12.878;2023-07-29T10:17:37;96033.22;;;19.41;42.96
44079;BME280;29744;49.078;12.878;2023-07-29T10:22:39;96020.00;;;19.39;42.46
44079;BME280;29744;49.078;12.878;2023-07-29T10:27:56;96026.22;;;19.40;42.81
44079;BME280;29744;49.078;12.878;2023-07-29T10:32:59;96021.94;;;19.39;42.90
44079;BME280;29744;49.078;12.878;2023-07-29T10:38:05;96020.00;;;19.39;42.79
44079;BME280;29744;49.078;12.878;2023-07-29T10:43:10;96005.63;;;19.39;42.52
44079;BME280;29744;49.078;12.878;2023-07-29T10:48:12;96007.19;;;19.40;42.84
44079;BME280;29744;49.078;12.878;2023-07-29T10:53:13;96012.63;;;19.40;42.73
44079;BME280;29744;49.078;12.878;2023-07-29T10:58:15;96016.91;;;19.41;42.46
44079;BME280;29744;49.078;12.878;2023-07-29T11:03:17;96028.16;;;19.39;42.78
44079;BME280;29744;49.078;12.878;2023-07-29T11:08:21;96029.72;;;19.40;42.62
44079;BME280;29744;49.078;12.878;2023-07-29T11:13:22;96018.06;;;19.40;42.45
44079;BME280;29744;49.078;12.878;2023-07-29T11:18:22;96022.72;;;19.39;42.79
44079;BME280;29744;49.078;12.878;2023-07-29T11:23:30;96036.31;;;19.39;42.78
44079;BME280;29744;49.078;12.878;2023-07-29T11:28:30;96040.97;;;19.39;42.43
44079;BME280;29744;49.078;12.878;2023-07-29T11:33:31;96035.53;;;19.39;42.81
44079;BME280;29744;49.078;12.878;2023-07-29T11:38:31;96032.03;;;19.38;42.76
44079;BME280;29744;49.078;12.878;2023-07-29T11:43:37;96027.38;;;19.39;42.96
44079;BME280;29744;49.078;12.878;2023-07-29T11:48:37;96014.56;;;19.39;42.40
44079;BME280;29744;49.078;12.878;2023-07-29T11:53:37;96013.41;;;19.40;42.42
44079;BME280;29744;49.078;12.878;2023-07-29T11:58:37;96011.84;;;19.39;42.99
44079;BME280;29744;49.078;12.878;2023-07-29T12:03:38;96013.41;;;19.40;42.38
44079;BME280;29744;49.078;12.878;2023-07-29T12:08:38;96016.13;;;19.40;42.43
44079;BME280;29744;49.078;12.878;2023-07-29T12:13:41;96018.06;;;19.40;42.75
44079;BME280;29744;49.078;12.878;2023-07-29T12:18:42;96020.78;;;19.40;42.59
44079;BME280;29744;49.078;12.878;2023-07-29T12:23:43;96004.47;;;19.40;42.63
44079;BME280;29744;49.078;12.878;2023-07-29T12:28:46;96018.84;;;19.40;42.79
44079;BME280;29744;49.078;12.878;2023-07-29T12:33:47;96020.78;;;19.40;42.86
44079;BME280;29744;49.078;12.878;2023-07-29T12:38:48;95997.88;;;19.41;42.54
44079;BME280;29744;49.078;12.878;2023-07-29T12:43:48;95976.13;;;19.41;42.35
44079;BME280;29744;49.078;12.878;2023-07-29T12:48:48;95960.59;;;19.41;42.40
44079;BME280;29744;49.078;12.878;2023-07-29T12:53:49;95946.22;;;19.41;42.65
44079;BME280;29744;49.078;12.878;2023-07-29T12:58:49;95944.28;;;19.41;42.90
44079;BME280;29744;49.078;12.878;2023-07-29T13:03:49;95952.44;;;19.41;42.84
44079;BME280;29744;49.078;12.878;2023-07-29T13:08:49;95955.94;;;19.42;42.57
44079;BME280;29744;49.078;12.878;2023-07-29T13:13:50;95950.50;;;19.42;42.64
44079;BME280;29744;49.078;12.878;2023-07-29T13:18:50;95926.81;;;19.42;42.58
44079;BME280;29744;49.078;12.878;2023-07-29T13:23:51;95924.09;;;19.42;42.68
44079;BME280;29744;49.078;12.878;2023-07-29T13:28:51;95935.75;;;19.43;42.67
44079;BME280;29744;49.078;12.878;2023-07-29T13:33:52;95944.69;;;19.43;42.76
44079;BME280;29744;49.078;12.878;2023-07-29T13:38:52;95948.22;;;19.44;42.63
44079;BME280;29744;49.078;12.878;2023-07-29T13:43:52;95930.75;;;19.45;42.50
44079;BME280;29744;49.078;12.878;2023-07-29T13:48:52;95938.47;;;19.43;42.98
44079;BME280;29744;49.078;12.878;2023-07-29T13:53:53;95937.34;;;19.44;42.95
44079;BME280;29744;49.078;12.878;2023-07-29T13:58:53;95924.88;;;19.43;42.58
44079;BME280;29744;49.078;12.878;2023-07-29T14:03:53;95926.47;;;19.44;42.72
44079;BME280;29744;49.078;12.878;2023-07-29T14:08:54;95918.28;;;19.44;42.71
44079;BME280;29744;49.078;12.878;2023-07-29T14:13:54;95916.34;;;19.44;42.59
44079;BME280;29744;49.078;12.878;2023-07-29T14:18:54;95917.94;;;19.45;42.89
44079;BME280;29744;49.078;12.878;2023-07-29T14:23:54;95924.53;;;19.44;42.92
44079;BME280;29744;49.078;12.878;2023-07-29T14:28:55;95922.22;;;19.46;43.17
44079;BME280;29744;49.078;12.878;2023-07-29T14:33:55;95919.91;;;19.48;43.29
44079;BME280;29744;49.078;12.878;2023-07-29T14:38:56;95919.97;;;19.52;43.22
44079;BME280;29744;49.078;12.878;2023-07-29T14:43:56;95923.88;;;19.54;43.28
44079;BME280;29744;49.078;12.878;2023-07-29T14:48:56;95914.56;;;19.55;43.55
44079;BME280;29744;49.078;12.878;2023-07-29T14:53:57;95901.00;;;19.59;43.12
44079;BME280;29744;49.078;12.878;2023-07-29T14:58:57;95906.88;;;19.61;43.72
44079;BME280;29744;49.078;12.878;2023-07-29T15:03:57;95903.00;;;19.62;43.24
44079;BME280;29744;49.078;12.878;2023-07-29T15:08:58;95901.06;;;19.63;43.64
44079;BME280;29744;49.078;12.878;2023-07-29T15:13:59;95902.25;;;19.65;43.67
44079;BME280;29744;49.078;12.878;2023-07-29T15:18:59;95887.50;;;19.66;43.47
44079;BME280;29744;49.078;12.878;2023-07-29T15:24:00;95900.72;;;19.68;43.35
44079;BME280;29744;49.078;12.878;2023-07-29T15:29:00;95887.50;;;19.66;43.30
44079;BME280;29744;49.078;12.878;2023-07-29T15:34:02;95883.22;;;19.65;43.51
44079;BME280;29744;49.078;12.878;2023-07-29T15:39:02;95888.25;;;19.63;42.82
44079;BME280;29744;49.078;12.878;2023-07-29T15:44:03;95890.19;;;19.63;43.20
44079;BME280;29744;49.078;12.878;2023-07-29T15:49:03;95884.75;;;19.63;43.27
44079;BME280;29744;49.078;12.878;2023-07-29T15:54:03;95880.81;;;19.60;43.17
44079;BME280;29744;49.078;12.878;2023-07-29T15:59:04;95885.47;;;19.59;43.47
44079;BME280;29744;49.078;12.878;2023-07-29T16:04:04;95892.84;;;19.59;43.17
44079;BME280;29744;49.078;12.878;2023-07-29T16:09:04;95888.56;;;19.58;42.94
44079;BME280;29744;49.078;12.878;2023-07-29T16:14:06;95899.44;;;19.58;43.17
44079;BME280;29744;49.078;12.878;2023-07-29T16:19:06;95897.88;;;19.57;43.11
44079;BME280;29744;49.078;12.878;2023-07-29T16:24:09;95888.94;;;19.56;43.53
44079;BME280;29744;49.078;12.878;2023-07-29T16:29:09;95892.44;;;19.57;43.10
44079;BME280;29744;49.078;12.878;2023-07-29T16:34:09;95896.72;;;19.58;43.16
44079;BME280;29744;49.078;12.878;2023-07-29T16:39:10;95899.44;;;19.58;43.22
44079;BME280;29744;49.078;12.878;2023-07-29T16:44:10;95908.75;;;19.57;43.62
44079;BME280;29744;49.078;12.878;2023-07-29T16:49:10;95904.09;;;19.57;43.27
44079;BME280;29744;49.078;12.878;2023-07-29T16:54:10;95918.84;;;19.56;43.17
44079;BME280;29744;49.078;12.878;2023-07-29T16:59:11;95916.50;;;19.55;43.14
44079;BME280;29744;49.078;12.878;2023-07-29T17:04:11;95916.91;;;19.57;43.07
44079;BME280;29744;49.078;12.878;2023-07-29T17:09:11;95929.72;;;19.56;42.75
44079;BME280;29744;49.078;12.878;2023-07-29T17:14:12;95935.97;;;19.57;43.42
44079;BME280;29744;49.078;12.878;2023-07-29T17:19:12;95936.31;;;19.55;43.37
44079;BME280;29744;49.078;12.878;2023-07-29T17:24:13;95931.66;;;19.56;42.86
44079;BME280;29744;49.078;12.878;2023-07-29T17:29:13;95930.09;;;19.55;42.88
44079;BME280;29744;49.078;12.878;2023-07-29T17:34:14;95933.97;;;19.54;43.09
44079;BME280;29744;49.078;12.878;2023-07-29T17:39:14;95953.78;;;19.54;42.99
44079;BME280;29744;49.078;12.878;2023-07-29T17:44:14;95942.13;;;19.54;43.47
44079;BME280;29744;49.078;12.878;2023-07-29T17:49:14;95950.28;;;19.54;43.16
44079;BME280;29744;49.078;12.878;2023-07-29T17:54:15;95944.84;;;19.54;43.22
44079;BME280;29744;49.078;12.878;2023-07-29T17:59:15;95946.78;;;19.53;43.08
44079;BME280;29744;49.078;12.878;2023-07-29T18:04:15;95940.56;;;19.53;43.18
44079;BME280;29744;49.078;12.878;2023-07-29T18:09:16;95945.22;;;19.52;42.98
44079;BME280;29744;49.078;12.878;2023-07-29T18:14:16;95957.66;;;19.53;42.98
44079;BME280;29744;49.078;12.878;2023-07-29T18:19:16;95964.63;;;19.51;43.06
44079;BME280;29744;49.078;12.878;2023-07-29T18:24:17;95968.13;;;19.51;43.29
44079;BME280;29744;49.078;12.878;2023-07-29T18:29:17;95980.94;;;19.51;42.79
44079;BME280;29744;49.078;12.878;2023-07-29T18:34:18;95992.59;;;19.51;43.13
44079;BME280;29744;49.078;12.878;2023-07-29T18:39:22;95992.97;;;19.50;43.05
44079;BME280;29744;49.078;12.878;2023-07-29T18:44:22;96002.69;;;19.51;42.98
44079;BME280;29744;49.078;12.878;2023-07-29T18:49:22;96004.63;;;19.50;43.26
44079;BME280;29744;49.078;12.878;2023-07-29T18:54:23;95994.91;;;19.49;43.12
44079;BME280;29744;49.078;12.878;2023-07-29T18:59:24;95998.78;;;19.48;43.47
44079;BME280;29744;49.078;12.878;2023-07-29T19:04:24;96004.22;;;19.48;42.67
44079;BME280;29744;49.078;12.878;2023-07-29T19:09:25;96010.44;;;19.49;43.05
44079;BME280;29744;49.078;12.878;2023-07-29T19:14:25;96009.66;;;19.48;43.07
44079;BME280;29744;49.078;12.878;2023-07-29T19:19:25;96014.31;;;19.48;43.12
44079;BME280;29744;49.078;12.878;2023-07-29T19:24:26;96015.47;;;19.47;43.14
44079;BME280;29744;49.078;12.878;2023-07-29T19:29:26;96013.53;;;19.47;42.93
44079;BME280;29744;49.078;12.878;2023-07-29T19:34:27;96013.88;;;19.46;42.87
44079;BME280;29744;49.078;12.878;2023-07-29T19:39:30;96017.41;;;19.46;43.22
44079;BME280;29744;49.078;12.878;2023-07-29T19:44:30;96015.81;;;19.45;43.38
44079;BME280;29744;49.078;12.878;2023-07-29T19:49:33;96015.81;;;19.45;43.17
44079;BME280;29744;49.078;12.878;2023-07-29T19:54:33;96015.81;;;19.45;43.07
44079;BME280;29744;49.078;12.878;2023-07-29T19:59:33;96016.97;;;19.44;43.13
44079;BME280;29744;49.078;12.878;2023-07-29T20:04:34;96013.47;;;19.44;42.98
44079;BME280;29744;49.078;12.878;2023-07-29T20:09:34;96011.53;;;19.44;43.36
44079;BME280;29744;49.078;12.878;2023-07-29T20:14:34;96008.03;;;19.44;42.97
44079;BME280;29744;49.078;12.878;2023-07-29T20:19:35;96009.97;;;19.43;42.98
44079;BME280;29744;49.078;12.878;2023-07-29T20:24:35;96021.63;;;19.44;43.13
44079;BME280;29744;49.078;12.878;2023-07-29T20:29:35;96011.13;;;19.42;43.23
44079;BME280;29744;49.078;12.878;2023-07-29T20:34:36;96018.50;;;19.42;43.25
44079;BME280;29744;49.078;12.878;2023-07-29T20:39:36;96021.22;;;19.42;43.08
44079;BME280;29744;49.078;12.878;2023-07-29T20:44:36;96027.44;;;19.42;42.89
44079;BME280;29744;49.078;12.878;2023-07-29T20:49:38;96032.09;;;19.42;43.36
44079;BME280;29744;49.078;12.878;2023-07-29T20:54:38;96026.66;;;19.42;43.09
44079;BME280;29744;49.078;12.878;2023-07-29T20:59:39;96021.22;;;19.42;43.18
44079;BME280;29744;49.078;12.878;2023-07-29T21:04:39;96033.66;;;19.43;43.03
44079;BME280;29744;49.078;12.878;2023-07-29T21:09:39;96036.38;;;19.43;43.15
44079;BME280;29744;49.078;12.878;2023-07-29T21:14:40;96041.81;;;19.43;43.10
44079;BME280;29744;49.078;12.878;2023-07-29T21:19:40;96046.47;;;19.42;43.05
44079;BME280;29744;49.078;12.878;2023-07-29T21:24:41;96032.09;;;19.42;43.25
44079;BME280;29744;49.078;12.878;2023-07-29T21:29:42;96032.88;;;19.42;42.93
44079;BME280;29744;49.078;12.878;2023-07-29T21:34:42;96042.19;;;19.41;43.32
44079;BME280;29744;49.078;12.878;2023-07-29T21:39:42;96037.88;;;19.40;43.16
44079;BME280;29744;49.078;12.878;2023-07-29T21:44:42;96046.03;;;19.40;43.22
44079;BME280;29744;49.078;12.878;2023-07-29T21:49:43;96049.91;;;19.39;43.54
44079;BME280;29744;49.078;12.878;2023-07-29T21:54:44;96045.25;;;19.40;43.13
44079;BME280;29744;49.078;12.878;2023-07-29T21:59:44;96041.41;;;19.41;43.45
44079;BME280;29744;49.078;12.878;2023-07-29T22:04:44;96047.19;;;19.39;43.11
44079;BME280;29744;49.078;12.878;2023-07-29T22:09:45;96044.47;;;19.39;43.08
44079;BME280;29744;49.078;12.878;2023-07-29T22:14:45;96066.22;;;19.39;42.81
44079;BME280;29744;49.078;12.878;2023-07-29T22:19:46;96065.44;;;19.39;43.35
44079;BME280;29744;49.078;12.878;2023-07-29T22:24:46;96061.56;;;19.40;43.11
44079;BME280;29744;49.078;12.878;2023-07-29T22:29:46;96055.34;;;19.39;43.19
44079;BME280;29744;49.078;12.878;2023-07-29T22:34:47;96049.13;;;19.39;43.31
44079;BME280;29744;49.078;12.878;2023-07-29T22:39:47;96047.19;;;19.39;42.86
44079;BME280;29744;49.078;12.878;2023-07-29T22:44:48;96040.97;;;19.39;43.32
44079;BME280;29744;49.078;12.878;2023-07-29T22:49:48;96053.00;;;19.38;43.23
44079;BME280;29744;49.078;12.878;2023-07-29T22:54:48;96056.50;;;19.38;43.12
44079;BME280;29744;49.078;12.878;2023-07-29T22:59:49;96053.78;;;19.38;42.87
44079;BME280;29744;49.078;12.878;2023-07-29T23:04:49;96054.56;;;19.39;43.29
44079;BME280;29744;49.078;12.878;2023-07-29T23:09:49;96061.16;;;19.38;43.36
44079;BME280;29744;49.078;12.878;2023-07-29T23:14:49;96049.50;;;19.37;43.04
44079;BME280;29744;49.078;12.878;2023-07-29T23:19:50;96063.88;;;19.38;43.12
44079;BME280;29744;49.078;12.878;2023-07-29T23:24:50;96071.25;;;19.37;43.08
44079;BME280;29744;49.078;12.878;2023-07-29T23:29:50;96049.50;;;19.37;43.22
44079;BME280;29744;49.078;12.878;2023-07-29T23:34:51;96037.84;;;19.37;43.45
44079;BME280;29744;49.078;12.878;2023-07-29T23:39:51;96035.13;;;19.37;43.07
44079;BME280;29744;49.078;12.878;2023-07-29T23:44:51;96040.56;;;19.37;43.50
44079;BME280;29744;49.078;12.878;2023-07-29T23:49:52;96032.41;;;19.37;43.02
44079;BME280;29744;49.078;12.878;2023-07-29T23:54:52;96028.09;;;19.36;43.54
44079;BME280;29744;49.078;12.878;2023-07-29T23:59:52;96023.81;;;19.35;43.07
